Terminal Aerodrome Forecast
Issued by NWS

Home | Current Version | Previous Version | Text Only | Print | Product List | Glossary On
Versions: 1 2 3 4 5 6 7 8 9 10 11 12 13 14 15 16 17 18
000
FTUS42 KTBW 290124 AAA
TAFLAL
TAF AMD
KLAL 290124Z 2901/2924 09011KT P6SM FEW060
     FM290400 08007KT P6SM FEW250
     FM291800 06011KT P6SM VCTS FEW025CB SCT250
      AMD NOT SKED 2903/2912=

USA.gov is the U.S. government's official web portal to all federal, state and local government web resources and services.